Details for EasyJet at LFBO




Go Back


Latest METAR
Local Time

LFBO 241330Z AUTO 33003KT 270V030 CAVOK 07/M02 Q1009 NOSIG

24/02/2018, 14:55:38

Description
Results
EasyJet Logo
Number of Pilots based at LFBO
0 Pilots Based here
Number of EasyJet Flights Departed from LFBO
0 Flights Departed
Number of EasyJet Flights Arrived at LFBO
1 Flights Arrived
Number of EasyJet Schedules Departing from LFBO
76 Schedules
Number of EasyJet Schedules Arriving at LFBO
75 Schedules
Number of EasyJet Schedules Departing from LFBO availible today
18 Schedules Today
Number of EasyJet Schedules Arriving at LFBO availible today
18 Schedules Today
Average Landing Rate at LFBO
-223 fpm
EasyJet Average Landing Rate at LFBO
-190 fpm
Total Fuel Purchased at LFBO by EasyJet
0.00 kgs / 0.00 lbs

Pilots Based at LFBO


Pilot ID
Pilot Name
Pilot Rank
No. of Flights
No. of Flying Hours
There are no pilots assigned to this hub!   Will you be the first?
Content